Leipsic, Delaware
Current Conditions -  °F | °C
As of 7:58 AM on Monday 22 Dec 2014 (Local Time) from KDOV Reporting Station
Few Clouds Few Clouds  
Wind Chill: 27°   Ceiling: Unl
Heat Index: 27°   Visibility: 10mi
Dew Point: 26°   Wind: 3mph
Humidity: 99%   Direction: 10°N
Pressure: 30.28"   Gusts: NA
Location:  39.1624°N, 75.5199°W
Report Text: KDOV 221258Z AUTO 01003KT 10SM FEW060 M03/M03 A3028 RMK AO2 SLP257 T10291031
Loading
Personal Weather Stations






























Interactive Weather Map New forecast layout! Learn more

10-Day Weather Forecast

Advertisements
Track Severe Weather on mobile